Time;durP1;ratioP1;P1;durP2;ratioP2;P2;SDS_P1;SDS_P2;PMS_P1;PMS_P2;Temp;Humidity;BMP_temperature;BMP_pressure;BME280_temperature;BME280_humidity;BME280_pressure;Samples;Min_cycle;Max_cycle;Signal;HPM_P1;HPM_P2
2021/01/17 00:00:18;;;;;;;32.25;15.65;;;-0.30;80.90;;;;;;5034040;28;20066;-87
2021/01/17 00:02:46;;;;;;;23.73;14.00;;;-0.30;81.30;;;;;;5039437;28;20113;-88
2021/01/17 00:05:13;;;;;;;34.22;16.33;;;-0.30;80.90;;;;;;5039614;28;20029;-88
2021/01/17 00:07:40;;;;;;;33.25;15.90;;;-0.20;80.80;;;;;;5038151;28;20036;-88
2021/01/17 00:10:08;;;;;;;29.90;15.98;;;-0.30;80.70;;;;;;5056357;28;20060;-88
2021/01/17 00:12:33;;;;;;;25.10;14.32;;;-0.30;80.80;;;;;;5053520;28;20048;-87
2021/01/17 00:14:59;;;;;;;29.80;14.77;;;-0.30;80.80;;;;;;5039746;28;20044;-87
2021/01/17 00:17:26;;;;;;;28.27;15.07;;;-0.40;80.90;;;;;;5036420;28;20486;-89
2021/01/17 00:19:51;;;;;;;29.58;16.23;;;-0.50;81.00;;;;;;5037800;28;20021;-87
2021/01/17 00:22:21;;;;;;;36.53;18.35;;;-0.50;81.20;;;;;;5037595;28;20136;-88
2021/01/17 00:24:46;;;;;;;32.45;15.88;;;-0.60;81.50;;;;;;5040107;28;20029;-87
2021/01/17 00:27:13;;;;;;;32.67;16.73;;;-0.60;81.60;;;;;;5035992;28;20116;-87
2021/01/17 00:29:40;;;;;;;37.08;16.65;;;-0.60;81.50;;;;;;5038864;28;20116;-87
2021/01/17 00:32:12;;;;;;;31.25;15.55;;;-0.60;81.30;;;;;;5037426;28;20029;-87
2021/01/17 00:34:38;;;;;;;;;;;-0.60;81.30;;;;;;5027102;28;20086;-88
2021/01/17 00:37:04;;;;;;;32.10;15.30;;;-0.70;81.40;;;;;;5039435;28;20382;-87
2021/01/17 00:39:29;;;;;;;34.40;16.45;;;-0.80;81.50;;;;;;5056295;28;20029;-87
2021/01/17 00:41:55;;;;;;;34.45;15.75;;;-0.90;81.90;;;;;;5037296;28;20029;-88
2021/01/17 00:44:21;;;;;;;35.50;16.52;;;-0.90;82.00;;;;;;5038904;28;20029;-87
2021/01/17 00:46:46;;;;;;;35.67;17.05;;;-0.90;82.20;;;;;;5035817;28;20034;-87
2021/01/17 00:49:12;;;;;;;36.42;16.55;;;-0.80;82.30;;;;;;5046803;28;20047;-87
2021/01/17 00:51:41;;;;;;;32.22;15.68;;;-0.80;82.10;;;;;;5036259;28;20039;-88
2021/01/17 00:54:07;;;;;;;32.38;15.43;;;-0.80;82.10;;;;;;5035545;28;20043;-88
2021/01/17 00:56:33;;;;;;;35.45;17.05;;;-0.80;82.00;;;;;;5036116;28;20052;-87
2021/01/17 00:58:59;;;;;;;31.13;16.08;;;-0.90;82.00;;;;;;5039327;28;20028;-87
2021/01/17 01:01:24;;;;;;;30.08;16.00;;;-0.90;82.30;;;;;;5036811;28;20033;-87
2021/01/17 01:03:50;;;;;;;32.72;15.70;;;-0.90;82.40;;;;;;5057919;28;20077;-88
2021/01/17 01:06:17;;;;;;;32.00;15.40;;;-0.90;82.50;;;;;;5030899;28;20468;-88
2021/01/17 01:08:43;;;;;;;34.13;16.42;;;-0.90;82.70;;;;;;5030895;28;20021;-88
2021/01/17 01:11:08;;;;;;;30.75;16.27;;;-0.90;82.60;;;;;;5035361;28;20163;-87
2021/01/17 01:13:34;;;;;;;32.72;15.57;;;-1.00;82.50;;;;;;5042070;28;20025;-87
2021/01/17 01:15:59;;;;;;;32.63;15.82;;;-1.00;82.60;;;;;;5038803;28;20068;-87
2021/01/17 01:18:25;;;;;;;30.63;15.20;;;-1.00;82.80;;;;;;5041240;28;20021;-87
2021/01/17 01:20:50;;;;;;;29.67;14.07;;;-0.90;82.80;;;;;;5045006;28;20028;-88
2021/01/17 01:23:16;;;;;;;29.95;14.88;;;-1.00;82.70;;;;;;5037232;28;20092;-87
2021/01/17 01:25:42;;;;;;;32.40;16.95;;;-1.00;82.80;;;;;;5038363;28;20036;-88
2021/01/17 01:28:07;;;;;;;37.10;17.60;;;-1.00;83.00;;;;;;5040640;28;20471;-87
2021/01/17 01:30:33;;;;;;;35.50;16.95;;;-0.90;83.20;;;;;;5038699;28;20475;-87
2021/01/17 01:32:58;;;;;;;37.45;18.10;;;-0.80;83.10;;;;;;5035507;28;20032;-88
2021/01/17 01:35:24;;;;;;;32.53;16.60;;;-0.70;83.00;;;;;;5032100;28;20028;-88
2021/01/17 01:37:49;;;;;;;33.17;17.05;;;-0.60;82.80;;;;;;5036493;28;20505;-88
2021/01/17 01:40:15;;;;;;;31.80;16.05;;;-0.60;82.70;;;;;;5033232;28;20091;-87
2021/01/17 01:42:42;;;;;;;30.95;15.90;;;-0.60;82.60;;;;;;5038177;28;20048;-87
2021/01/17 01:45:09;;;;;;;27.25;14.20;;;-0.60;82.50;;;;;;5035625;28;20040;-88
2021/01/17 01:47:35;;;;;;;35.10;16.17;;;-0.60;82.30;;;;;;5036131;28;20029;-87
2021/01/17 01:50:02;;;;;;;30.63;15.57;;;-0.60;82.60;;;;;;5033317;28;20021;-87
2021/01/17 01:52:27;;;;;;;30.60;15.25;;;-0.60;82.70;;;;;;5029795;28;20040;-88
2021/01/17 01:54:53;;;;;;;29.48;15.05;;;-0.60;82.70;;;;;;5028182;28;20483;-87
2021/01/17 01:57:18;;;;;;;31.30;15.60;;;-0.60;82.50;;;;;;5032490;28;20540;-87
2021/01/17 01:59:44;;;;;;;36.47;17.00;;;-0.60;82.80;;;;;;5030779;28;20120;-89
2021/01/17 02:02:11;;;;;;;34.35;16.52;;;-0.50;83.00;;;;;;5036624;28;20055;-88
2021/01/17 02:04:37;;;;;;;28.58;15.63;;;-0.50;82.90;;;;;;5039260;28;20479;-88
2021/01/17 02:07:37;;;;;;;29.05;14.60;;;-0.50;82.60;;;;;;5036747;28;20033;-88
2021/01/17 02:10:03;;;;;;;28.20;14.93;;;-0.50;82.60;;;;;;5037609;28;20067;-87
2021/01/17 02:12:44;;;;;;;30.02;15.48;;;-0.60;82.60;;;;;;5036001;28;20033;-88
2021/01/17 02:15:22;;;;;;;35.15;16.02;;;-0.60;82.80;;;;;;5028322;28;20503;-87
2021/01/17 02:17:49;;;;;;;29.30;14.60;;;-0.70;82.90;;;;;;5037055;28;20051;-87
2021/01/17 02:20:25;;;;;;;31.80;15.55;;;-0.70;83.00;;;;;;5037863;28;20070;-87
2021/01/17 02:23:00;;;;;;;30.52;15.43;;;-0.60;83.10;;;;;;5037950;28;20111;-88
2021/01/17 02:25:27;;;;;;;34.10;16.00;;;-0.70;83.10;;;;;;5036170;28;20144;-88
2021/01/17 02:27:54;;;;;;;33.60;16.58;;;-0.70;83.30;;;;;;5038836;28;20021;-89
2021/01/17 02:30:23;;;;;;;33.38;16.25;;;-0.60;83.30;;;;;;5046147;28;20017;-88
2021/01/17 02:32:53;;;;;;;34.47;16.77;;;-0.70;83.10;;;;;;5048854;28;20108;-88
2021/01/17 02:35:21;;;;;;;35.05;15.75;;;-0.60;83.10;;;;;;5051462;28;20026;-89
2021/01/17 02:37:59;;;;;;;34.53;16.63;;;-0.70;83.10;;;;;;5044794;28;20034;-89
2021/01/17 02:40:40;;;;;;;31.15;16.85;;;-0.70;83.30;;;;;;5031713;28;20029;-90
2021/01/17 02:43:07;;;;;;;32.28;16.38;;;-0.60;83.30;;;;;;5036775;28;20021;-90
2021/01/17 02:45:34;;;;;;;37.47;17.85;;;-0.60;83.10;;;;;;5047320;28;20376;-90
2021/01/17 02:48:00;;;;;;;40.20;18.77;;;-0.60;83.10;;;;;;5047843;28;20403;-89
2021/01/17 02:50:25;;;;;;;34.97;18.15;;;-0.60;83.10;;;;;;5050028;28;20025;-89
2021/01/17 02:53:15;;;;;;;35.97;18.60;;;-0.50;83.60;;;;;;5046803;28;20025;-89
2021/01/17 02:55:41;;;;;;;35.45;17.40;;;-0.50;83.00;;;;;;5019304;28;614765;-89
2021/01/17 02:58:08;;;;;;;34.72;16.95;;;-0.50;83.00;;;;;;5037636;28;20088;-87
2021/01/17 03:00:37;;;;;;;35.60;17.60;;;-0.50;82.90;;;;;;5040746;28;20040;-88
2021/01/17 03:03:06;;;;;;;36.13;18.17;;;-0.50;82.90;;;;;;5036715;28;20476;-87
2021/01/17 03:05:33;;;;;;;32.25;16.85;;;-0.40;82.90;;;;;;5020912;28;20095;-89
2021/01/17 03:07:59;;;;;;;34.22;16.88;;;-0.40;82.80;;;;;;5035741;28;20025;-88
2021/01/17 03:10:25;;;;;;;36.70;17.48;;;-0.40;82.80;;;;;;5038843;28;20025;-88
2021/01/17 03:12:52;;;;;;;34.15;16.90;;;-0.40;82.90;;;;;;5039291;28;20028;-88
2021/01/17 03:15:19;;;;;;;29.30;15.63;;;-0.40;82.70;;;;;;5039586;28;20029;-88
2021/01/17 03:17:44;;;;;;;35.80;18.58;;;-0.50;82.60;;;;;;5039146;28;20064;-89
2021/01/17 03:20:10;;;;;;;33.35;17.55;;;-0.50;82.60;;;;;;5042474;28;20388;-89
2021/01/17 03:22:36;;;;;;;34.88;17.77;;;-0.50;82.70;;;;;;5039157;28;20040;-89
2021/01/17 03:25:03;;;;;;;29.33;16.13;;;-0.50;82.70;;;;;;5042948;28;20025;-89
2021/01/17 03:27:29;;;;;;;34.80;17.52;;;-0.50;82.60;;;;;;5030720;28;20480;-89
2021/01/17 03:29:54;;;;;;;36.95;19.05;;;-0.60;82.50;;;;;;5023351;28;20113;-89
2021/01/17 03:32:20;;;;;;;33.15;17.42;;;-0.60;82.40;;;;;;5038338;28;20036;-87
2021/01/17 03:34:49;;;;;;;34.88;16.65;;;-0.70;82.30;;;;;;5043318;28;20118;-88
2021/01/17 03:37:18;;;;;;;31.65;16.55;;;-0.80;82.70;;;;;;5042405;28;20136;-87
2021/01/17 03:39:44;;;;;;;35.92;17.45;;;-0.80;82.80;;;;;;5042732;28;20112;-87
2021/01/17 03:42:11;;;;;;;40.03;18.95;;;-0.70;83.10;;;;;;5027881;28;20502;-88
2021/01/17 03:44:37;;;;;;;37.08;18.15;;;-0.80;82.90;;;;;;5023187;28;20045;-88
2021/01/17 03:47:04;;;;;;;34.60;17.17;;;-0.70;83.00;;;;;;5027533;28;20425;-90
2021/01/17 03:49:30;;;;;;;36.35;17.35;;;-0.70;83.00;;;;;;5042353;28;20029;-88
2021/01/17 03:51:56;;;;;;;38.30;16.80;;;-0.70;83.00;;;;;;5042196;28;20059;-87
2021/01/17 03:59:18;;;;;;;31.70;16.13;;;-0.70;83.00;;;;;;5030576;28;20513;-65
2021/01/17 04:01:44;;;;;;;32.42;15.43;;;-0.70;82.60;;;;;;5030059;28;20025;-65
2021/01/17 04:04:10;;;;;;;31.33;15.02;;;-0.80;82.80;;;;;;5032490;28;20036;-66
2021/01/17 04:06:38;;;;;;;33.38;15.25;;;-0.80;82.90;;;;;;5030032;28;20041;-65
2021/01/17 04:09:05;;;;;;;33.13;15.82;;;-0.80;82.90;;;;;;5042704;28;20068;-65
2021/01/17 04:11:31;;;;;;;33.30;16.70;;;-0.90;83.10;;;;;;5029768;28;20057;-65
2021/01/17 04:13:57;;;;;;;28.40;14.65;;;-0.90;83.20;;;;;;5030804;28;20477;-65
2021/01/17 04:16:22;;;;;;;34.13;14.88;;;-0.90;83.40;;;;;;5017887;28;20021;-66
2021/01/17 04:18:48;;;;;;;32.45;15.48;;;-0.90;83.40;;;;;;5042373;28;20426;-65
2021/01/17 04:21:13;;;;;;;31.40;16.02;;;-0.90;83.30;;;;;;5029340;28;20037;-65
2021/01/17 04:23:39;;;;;;;35.35;16.42;;;-0.90;83.30;;;;;;5034024;28;20056;-65
2021/01/17 04:26:05;;;;;;;35.70;16.13;;;-0.90;83.40;;;;;;5042478;28;20030;-65
2021/01/17 04:28:30;;;;;;;30.73;15.77;;;-0.80;83.40;;;;;;5035154;28;20033;-65
2021/01/17 04:30:56;;;;;;;34.42;15.43;;;-0.80;83.20;;;;;;5028582;28;20091;-65
2021/01/17 04:33:22;;;;;;;29.20;14.68;;;-0.80;83.10;;;;;;5033356;28;20022;-65
2021/01/17 04:35:48;;;;;;;31.63;15.25;;;-0.80;83.00;;;;;;5029636;28;20045;-65
2021/01/17 04:38:13;;;;;;;36.92;16.33;;;-0.80;83.30;;;;;;5019936;28;21661;-66
2021/01/17 04:40:39;;;;;;;33.67;15.70;;;-0.80;83.30;;;;;;5032658;28;20034;-65
2021/01/17 04:43:26;;;;;;;34.95;16.13;;;-0.80;83.20;;;;;;5021372;28;20100;-65
2021/01/17 04:45:53;;;;;;;34.95;16.25;;;-0.70;83.40;;;;;;5015362;28;20061;-65
2021/01/17 04:48:20;;;;;;;29.50;15.40;;;-0.70;83.20;;;;;;5028328;28;20063;-65
2021/01/17 04:50:46;;;;;;;29.80;14.38;;;-0.70;83.10;;;;;;5027427;28;20482;-66
2021/01/17 04:53:13;;;;;;;30.65;16.40;;;-0.70;83.10;;;;;;5027664;28;20053;-65
2021/01/17 04:55:39;;;;;;;32.03;16.15;;;-0.70;83.10;;;;;;5028261;28;20085;-65
2021/01/17 04:58:08;;;;;;;31.35;16.17;;;-0.70;83.10;;;;;;5023342;28;20469;-65
2021/01/17 05:00:39;;;;;;;29.92;16.38;;;-0.70;83.10;;;;;;5011684;28;20039;-65
2021/01/17 05:03:05;;;;;;;31.40;15.02;;;-0.70;83.20;;;;;;5013616;28;20040;-65
2021/01/17 05:05:52;;;;;;;33.80;15.55;;;-0.70;83.20;;;;;;5020682;28;20025;-66
2021/01/17 05:08:27;;;;;;;35.17;16.33;;;-0.70;83.30;;;;;;5033516;28;20049;-65
2021/01/17 05:11:00;;;;;;;27.05;14.85;;;-0.60;83.30;;;;;;5029095;28;20064;-65
2021/01/17 05:13:33;;;;;;;32.53;15.15;;;-0.60;83.30;;;;;;5030941;28;20028;-65
2021/01/17 05:16:04;;;;;;;28.42;15.00;;;-0.60;83.30;;;;;;5030318;28;20051;-65
2021/01/17 05:18:30;;;;;;;30.90;15.27;;;-0.60;83.30;;;;;;5031027;28;20033;-66
2021/01/17 05:21:01;;;;;;;32.80;16.25;;;-0.60;83.20;;;;;;5012279;28;20022;-65
2021/01/17 05:23:33;;;;;;;27.27;14.27;;;-0.60;83.10;;;;;;5030436;28;20048;-65
2021/01/17 05:26:00;;;;;;;31.40;14.48;;;-0.60;83.10;;;;;;5029696;28;20028;-66
2021/01/17 05:28:28;;;;;;;30.27;15.25;;;-0.50;83.30;;;;;;5035882;28;20059;-66
2021/01/17 05:30:55;;;;;;;28.40;14.63;;;-0.50;83.30;;;;;;5027204;28;20033;-65
2021/01/17 05:33:26;;;;;;;30.20;14.63;;;-0.50;83.40;;;;;;5030630;28;20527;-65
2021/01/17 05:35:52;;;;;;;29.90;14.98;;;-0.50;83.30;;;;;;5023814;28;20025;-65
2021/01/17 05:38:18;;;;;;;31.90;15.45;;;-0.50;83.40;;;;;;5040273;28;20033;-66
2021/01/17 05:40:43;;;;;;;33.92;15.73;;;-0.50;83.30;;;;;;5038712;28;20035;-65
2021/01/17 05:43:09;;;;;;;30.15;14.88;;;-0.50;83.30;;;;;;5042518;28;20025;-66
2021/01/17 05:45:35;;;;;;;26.75;13.73;;;-0.50;83.10;;;;;;5028433;28;20079;-66
2021/01/17 05:48:04;;;;;;;27.58;13.90;;;-0.50;83.10;;;;;;5030785;28;20079;-66
2021/01/17 05:50:31;;;;;;;28.05;13.95;;;-0.60;83.10;;;;;;5032008;28;20036;-65
2021/01/17 05:53:05;;;;;;;27.23;14.57;;;-0.70;83.10;;;;;;5031787;28;20017;-66
2021/01/17 05:55:40;;;;;;;27.90;13.88;;;-0.80;83.40;;;;;;5027596;28;20029;-65
2021/01/17 05:58:30;;;;;;;27.77;13.18;;;-0.80;83.60;;;;;;5024487;28;20108;-65
2021/01/17 06:01:00;;;;;;;27.02;13.70;;;-0.80;83.70;;;;;;5018894;28;20028;-65
2021/01/17 06:03:33;;;;;;;30.48;14.93;;;-0.80;83.70;;;;;;5045861;28;20045;-65
2021/01/17 06:06:06;;;;;;;25.63;13.38;;;-0.80;83.90;;;;;;5034265;28;20025;-66
2021/01/17 06:08:33;;;;;;;28.23;13.52;;;-0.80;83.80;;;;;;5034845;28;20362;-65
2021/01/17 06:11:12;;;;;;;32.33;14.27;;;-0.80;84.00;;;;;;5031783;28;20021;-65
2021/01/17 06:13:40;;;;;;;28.67;14.65;;;-0.80;84.10;;;;;;5030493;28;20428;-65
2021/01/17 06:16:26;;;;;;;32.65;15.45;;;-0.80;83.90;;;;;;5031365;28;20525;-66
2021/01/17 06:18:57;;;;;;;26.15;14.02;;;-0.70;84.00;;;;;;5031181;28;20422;-65
2021/01/17 06:21:25;;;;;;;30.67;15.27;;;-0.70;83.90;;;;;;5030018;28;20029;-65
2021/01/17 06:24:01;;;;;;;32.88;15.48;;;-0.70;83.90;;;;;;5028974;28;20075;-66
2021/01/17 06:26:29;;;;;;;28.92;14.25;;;-0.70;83.90;;;;;;5033915;28;20032;-66
2021/01/17 06:28:55;;;;;;;29.48;14.80;;;-0.60;84.00;;;;;;5034093;28;20090;-65
2021/01/17 06:31:27;;;;;;;30.02;14.30;;;-0.60;83.90;;;;;;5023704;28;20072;-66
2021/01/17 06:34:09;;;;;;;29.95;14.85;;;-0.60;83.70;;;;;;5034910;28;20540;-66
2021/01/17 06:36:40;;;;;;;30.65;15.18;;;-0.60;83.70;;;;;;5030760;28;20037;-66
2021/01/17 06:39:18;;;;;;;32.35;15.02;;;-0.60;83.50;;;;;;5026845;28;20045;-66
2021/01/17 06:41:44;;;;;;;26.85;14.18;;;-0.50;83.50;;;;;;5027181;28;20021;-66
2021/01/17 06:44:13;;;;;;;27.98;14.20;;;-0.60;83.30;;;;;;5038040;28;20112;-66
2021/01/17 06:46:39;;;;;;;29.63;15.05;;;-0.50;83.40;;;;;;5029502;28;20053;-66
2021/01/17 06:49:23;;;;;;;29.42;14.63;;;-0.60;83.30;;;;;;5031206;28;20029;-65
2021/01/17 06:51:50;;;;;;;28.30;14.93;;;-0.60;83.20;;;;;;5036997;28;20756;-66
2021/01/17 06:54:17;;;;;;;28.35;14.35;;;-0.60;83.10;;;;;;5035515;28;20866;-66
2021/01/17 06:56:48;;;;;;;29.85;13.63;;;-0.70;83.20;;;;;;5035677;28;20021;-66
2021/01/17 06:59:34;;;;;;;28.90;13.30;;;-0.70;83.20;;;;;;5033658;28;20116;-66
2021/01/17 07:02:14;;;;;;;32.20;14.40;;;-0.70;83.30;;;;;;5037443;28;20052;-65
2021/01/17 07:04:52;;;;;;;25.50;13.43;;;-0.80;83.50;;;;;;5046969;28;20394;-65
2021/01/17 07:07:48;;;;;;;24.70;12.77;;;-0.80;83.80;;;;;;5029597;28;20499;-65
2021/01/17 07:10:20;;;;;;;27.10;14.15;;;-0.80;83.80;;;;;;5023795;28;20029;-66
2021/01/17 07:13:05;;;;;;;29.27;14.63;;;-0.80;83.80;;;;;;5025226;28;20060;-65
2021/01/17 07:15:32;;;;;;;29.48;14.05;;;-0.80;84.30;;;;;;5039039;28;20033;-65
2021/01/17 07:18:12;;;;;;;45.20;21.17;;;-0.80;83.80;;;;;;5033133;28;20076;-66
2021/01/17 07:20:39;;;;;;;27.73;14.75;;;-0.70;83.90;;;;;;5047052;28;20083;-66
2021/01/17 07:23:06;;;;;;;31.15;15.93;;;-0.70;83.90;;;;;;5019942;28;20024;-67
2021/01/17 07:25:34;;;;;;;31.35;15.75;;;-0.70;83.90;;;;;;5026238;28;20382;-67
2021/01/17 07:28:08;;;;;;;29.27;15.00;;;-0.70;83.70;;;;;;5027091;28;20491;-65
2021/01/17 07:30:47;;;;;;;27.35;13.85;;;-0.60;83.60;;;;;;5027295;28;20053;-66
2021/01/17 07:33:22;;;;;;;28.10;13.80;;;-0.60;83.60;;;;;;5029003;28;20013;-65
2021/01/17 07:35:48;;;;;;;32.58;15.77;;;-0.60;83.60;;;;;;5039955;28;20107;-65
2021/01/17 07:38:19;;;;;;;30.90;14.82;;;-0.60;83.70;;;;;;5035354;28;20021;-65
2021/01/17 07:40:56;;;;;;;31.77;15.68;;;-0.60;83.50;;;;;;5037816;28;20044;-65
2021/01/17 07:43:29;;;;;;;31.45;14.95;;;-0.60;83.60;;;;;;5034958;28;20481;-65
2021/01/17 07:46:16;;;;;;;32.47;16.27;;;-0.60;83.30;;;;;;5027509;28;20037;-65
2021/01/17 07:48:43;;;;;;;28.17;13.68;;;-0.70;83.40;;;;;;5037359;28;20036;-65
2021/01/17 07:51:10;;;;;;;27.90;13.88;;;-0.60;83.50;;;;;;5037784;28;20385;-65
2021/01/17 07:53:36;;;;;;;29.08;14.82;;;-0.60;83.70;;;;;;5050782;28;20021;-66
2021/01/17 07:56:16;;;;;;;31.83;15.70;;;-0.60;83.80;;;;;;5034747;28;20425;-66
2021/01/17 07:58:46;;;;;;;33.42;15.00;;;-0.60;83.70;;;;;;5032363;28;20462;-66
2021/01/17 08:01:38;;;;;;;30.25;15.40;;;-0.50;83.80;;;;;;5032279;28;20076;-66
2021/01/17 08:04:04;;;;;;;;;;;-0.50;83.60;;;;;;5021568;28;20109;-65
2021/01/17 08:06:35;;;;;;;33.00;15.07;;;-0.50;83.30;;;;;;5028546;28;20012;-66
2021/01/17 08:09:01;;;;;;;23.10;11.40;;;-0.50;83.40;;;;;;5028537;28;20045;-65
2021/01/17 08:11:56;;;;;;;32.58;15.60;;;-0.50;83.40;;;;;;5031539;28;20049;-66
2021/01/17 08:14:28;;;;;;;39.20;18.75;;;-0.60;83.40;;;;;;5039264;28;20552;-66
2021/01/17 08:17:21;;;;;;;30.75;15.05;;;-0.60;83.30;;;;;;5035675;28;20171;-66
2021/01/17 08:19:56;;;;;;;30.23;14.18;;;-0.60;83.30;;;;;;5034134;28;20051;-66
2021/01/17 08:22:22;;;;;;;36.67;18.40;;;-0.70;83.30;;;;;;5031688;28;20030;-66
2021/01/17 08:24:49;;;;;;;30.98;16.50;;;-0.70;83.50;;;;;;5037453;28;20061;-66
2021/01/17 08:27:31;;;;;;;31.55;15.70;;;-0.70;83.60;;;;;;5028445;28;20021;-65
2021/01/17 08:32:36;;;;;;;31.93;15.03;;;-0.70;83.80;;;;;;5036756;28;20030;-66
2021/01/17 08:35:20;;;;;;;38.63;17.98;;;-0.70;83.70;;;;;;5034169;28;20026;-66
2021/01/17 08:38:06;;;;;;;32.35;15.95;;;-0.70;83.70;;;;;;5039899;28;20029;-66
2021/01/17 08:40:32;;;;;;;34.55;16.60;;;-0.70;83.80;;;;;;5041461;28;20480;-66
2021/01/17 08:43:01;;;;;;;33.08;15.98;;;-0.70;83.90;;;;;;5020234;28;20032;-66
2021/01/17 08:45:27;;;;;;;31.65;15.50;;;-0.70;83.90;;;;;;5035919;28;20026;-66
2021/01/17 08:48:02;;;;;;;32.45;15.25;;;-0.60;83.90;;;;;;5030963;28;20084;-65
2021/01/17 08:50:28;;;;;;;32.70;15.38;;;-0.60;84.50;;;;;;5031207;28;20557;-64
2021/01/17 08:53:09;;;;;;;29.73;15.80;;;-0.50;84.00;;;;;;5026221;28;20549;-65
2021/01/17 08:55:48;;;;;;;32.58;15.07;;;-0.50;84.00;;;;;;5010280;28;20026;-65
2021/01/17 08:58:34;;;;;;;32.50;16.63;;;-0.50;84.00;;;;;;5036118;28;20029;-66
2021/01/17 09:01:00;;;;;;;31.92;15.80;;;-0.40;84.00;;;;;;5010136;28;20044;-66
2021/01/17 09:03:28;;;;;;;29.48;15.45;;;-0.40;84.00;;;;;;5033519;28;20474;-65
2021/01/17 09:06:12;;;;;;;30.55;14.68;;;-0.40;84.00;;;;;;5030775;28;20040;-64
2021/01/17 09:08:53;;;;;;;30.45;14.82;;;-0.40;84.00;;;;;;5032373;28;20025;-66
2021/01/17 09:11:28;;;;;;;33.53;15.43;;;-0.40;83.90;;;;;;5029447;28;20026;-66
2021/01/17 09:14:20;;;;;;;30.05;15.23;;;-0.30;83.90;;;;;;5027419;28;20021;-65
2021/01/17 09:17:12;;;;;;;;;;;-0.30;84.00;;;;;;5024406;28;20021;-65
2021/01/17 09:19:38;;;;;;;34.42;14.90;;;-0.30;83.90;;;;;;5024969;28;19949;-65
2021/01/17 09:22:06;;;;;;;32.42;16.35;;;-0.30;83.60;;;;;;5028134;28;20114;-65
2021/01/17 09:24:33;;;;;;;28.95;13.93;;;-0.30;83.80;;;;;;5011200;28;20472;-66
2021/01/17 09:27:01;;;;;;;31.17;14.65;;;-0.30;83.80;;;;;;5034496;28;20029;-66
2021/01/17 09:29:27;;;;;;;32.50;15.43;;;-0.20;84.00;;;;;;5027522;28;20033;-66
2021/01/17 09:31:55;;;;;;;27.73;15.18;;;-0.20;84.10;;;;;;5027797;28;20021;-65
2021/01/17 09:34:27;;;;;;;31.08;16.05;;;-0.10;84.20;;;;;;5019525;28;20036;-65
2021/01/17 09:36:54;;;;;;;25.20;14.20;;;-0.10;83.90;;;;;;5032899;28;20028;-65
2021/01/17 09:39:26;;;;;;;29.33;14.57;;;-0.10;83.80;;;;;;5023233;28;20484;-65
2021/01/17 09:41:52;;;;;;;30.42;14.48;;;0.00;83.90;;;;;;5026334;28;20104;-65
2021/01/17 09:44:18;;;;;;;32.42;15.65;;;0.00;83.90;;;;;;5009723;28;20448;-65
2021/01/17 09:46:44;;;;;;;29.20;14.25;;;0.10;84.00;;;;;;5030323;28;20068;-67
2021/01/17 09:49:10;;;;;;;29.85;14.27;;;0.10;84.00;;;;;;5010256;28;20033;-65
2021/01/17 09:51:36;;;;;;;30.73;16.05;;;0.20;83.90;;;;;;5027272;28;20359;-65
2021/01/17 09:54:02;;;;;;;27.67;15.07;;;0.20;83.80;;;;;;5021823;28;20040;-65
2021/01/17 09:56:28;;;;;;;27.98;16.02;;;0.20;83.50;;;;;;5067571;22;20048;-69
2021/01/17 09:58:53;;;;;;;33.58;15.68;;;0.20;83.40;;;;;;5070378;28;20108;-69
2021/01/17 10:01:20;;;;;;;33.50;17.75;;;0.10;83.70;;;;;;5088877;28;20035;-69
2021/01/17 10:03:47;;;;;;;28.85;14.52;;;0.20;84.10;;;;;;5088460;28;20032;-69
2021/01/17 10:06:14;;;;;;;28.33;14.55;;;0.30;84.20;;;;;;5087063;28;20496;-71
2021/01/17 10:08:40;;;;;;;28.05;14.30;;;0.30;83.90;;;;;;5088636;28;20028;-70
2021/01/17 10:11:06;;;;;;;28.02;14.68;;;0.40;84.00;;;;;;5087505;28;20602;-71
2021/01/17 10:13:32;;;;;;;30.65;14.77;;;0.40;84.00;;;;;;5068957;28;20035;-71
2021/01/17 10:15:57;;;;;;;25.58;13.15;;;0.50;83.80;;;;;;5069696;28;20020;-71
2021/01/17 10:18:24;;;;;;;36.78;15.88;;;0.50;83.70;;;;;;5089489;28;20031;-71
2021/01/17 10:20:56;;;;;;;29.10;15.00;;;0.50;83.80;;;;;;5069159;28;20024;-71
2021/01/17 10:23:32;;;;;;;;;;;0.50;83.90;;;;;;5072123;28;20027;-71
2021/01/17 10:25:58;;;;;;;25.42;13.82;;;0.60;83.90;;;;;;5072378;28;20283;-71
2021/01/17 10:28:27;;;;;;;28.30;15.00;;;0.60;83.60;;;;;;5087199;28;20536;-71
2021/01/17 10:30:59;;;;;;;29.38;14.35;;;0.60;83.70;;;;;;5070754;28;20028;-70
2021/01/17 10:33:25;;;;;;;26.17;13.50;;;0.60;83.60;;;;;;5087517;28;20017;-70
2021/01/17 10:35:51;;;;;;;29.85;14.38;;;0.60;83.70;;;;;;5087055;28;20032;-71
2021/01/17 10:38:18;;;;;;;32.00;14.35;;;0.70;84.00;;;;;;5088097;28;20055;-71
2021/01/17 10:40:44;;;;;;;29.40;14.80;;;0.80;83.90;;;;;;5087977;28;20020;-72
2021/01/17 10:43:30;;;;;;;32.63;17.15;;;0.70;83.60;;;;;;5083178;28;20531;-70
2021/01/17 10:46:15;;;;;;;30.92;15.63;;;0.80;83.80;;;;;;5081831;28;20025;-71
2021/01/17 10:48:54;;;;;;;28.42;14.55;;;0.80;83.60;;;;;;5086439;28;20073;-71
2021/01/17 10:51:25;;;;;;;29.23;13.52;;;0.80;83.70;;;;;;5087812;28;20107;-71
2021/01/17 10:53:52;;;;;;;29.95;15.80;;;0.80;83.70;;;;;;5087195;28;20020;-71
2021/01/17 10:56:20;;;;;;;29.83;15.27;;;0.80;83.60;;;;;;5085712;28;20035;-70
2021/01/17 10:58:48;;;;;;;31.00;15.73;;;0.80;83.40;;;;;;5087979;28;20051;-70
2021/01/17 11:01:14;;;;;;;31.15;16.50;;;0.80;83.40;;;;;;5086368;28;20028;-71
2021/01/17 11:03:41;;;;;;;31.23;16.15;;;0.80;83.40;;;;;;5087353;28;20031;-71
2021/01/17 11:06:10;;;;;;;32.45;15.90;;;0.90;83.60;;;;;;5086659;28;20031;-72
2021/01/17 11:08:43;;;;;;;28.02;14.95;;;0.90;83.80;;;;;;5085646;28;20024;-72
2021/01/17 11:11:09;;;;;;;28.90;15.35;;;0.90;83.70;;;;;;5086392;28;20032;-72
2021/01/17 11:13:36;;;;;;;29.08;15.60;;;1.00;83.60;;;;;;5070040;28;20027;-73
2021/01/17 11:16:02;;;;;;;29.70;14.70;;;1.00;83.80;;;;;;5068155;28;20049;-72
2021/01/17 11:18:28;;;;;;;28.38;14.95;;;1.10;84.00;;;;;;5068646;28;20391;-73
2021/01/17 11:21:01;;;;;;;29.70;15.48;;;1.10;83.90;;;;;;5068371;28;20024;-72
2021/01/17 11:23:28;;;;;;;24.98;14.15;;;1.20;83.90;;;;;;5083668;28;20066;-72
2021/01/17 11:25:57;;;;;;;31.33;16.90;;;1.20;83.50;;;;;;5067637;28;20032;-73
2021/01/17 11:28:24;;;;;;;29.92;14.18;;;1.20;83.80;;;;;;5069460;28;20023;-71
2021/01/17 11:30:49;;;;;;;25.15;13.80;;;1.30;84.20;;;;;;5069015;28;20115;-72
2021/01/17 11:33:15;;;;;;;28.45;14.23;;;1.40;84.50;;;;;;5090783;28;20586;-71
2021/01/17 11:35:41;;;;;;;26.08;14.00;;;1.40;84.40;;;;;;5088955;28;20024;-71
2021/01/17 11:38:08;;;;;;;26.08;14.07;;;1.50;84.30;;;;;;5087539;28;20028;-71
2021/01/17 11:40:34;;;;;;;28.95;14.30;;;1.50;84.20;;;;;;5071469;28;20030;-71
2021/01/17 11:43:11;;;;;;;29.33;15.23;;;1.50;84.20;;;;;;5091506;28;20032;-70
2021/01/17 11:45:39;;;;;;;27.88;14.65;;;1.60;84.20;;;;;;5065342;28;20028;-72
2021/01/17 11:48:05;;;;;;;27.15;14.60;;;1.50;83.80;;;;;;5089507;28;21719;-71
2021/01/17 11:50:31;;;;;;;28.55;14.75;;;1.50;83.60;;;;;;5090544;28;20111;-71
2021/01/17 11:53:02;;;;;;;29.45;15.63;;;1.50;83.80;;;;;;5072654;28;20116;-70
2021/01/17 11:55:29;;;;;;;28.52;14.85;;;1.50;83.80;;;;;;5089482;28;20043;-70
2021/01/17 11:58:15;;;;;;;119.30;34.33;;;1.40;83.80;;;;;;5091669;28;20028;-71
2021/01/17 12:00:49;;;;;;;33.70;16.13;;;1.50;84.00;;;;;;5090459;28;20022;-71
2021/01/17 12:03:27;;;;;;;48.50;19.30;;;1.40;83.70;;;;;;5091304;28;20020;-71
2021/01/17 12:06:00;;;;;;;31.60;16.95;;;1.40;83.80;;;;;;5090385;28;20020;-70
2021/01/17 12:08:46;;;;;;;28.38;14.00;;;1.40;83.90;;;;;;5071241;28;20116;-71
2021/01/17 12:11:12;;;;;;;27.23;15.25;;;1.40;83.90;;;;;;5070709;28;20032;-70
2021/01/17 12:13:37;;;;;;;86.07;31.98;;;1.40;84.00;;;;;;5073468;28;20020;-70
2021/01/17 12:16:06;;;;;;;33.45;16.45;;;1.30;84.00;;;;;;5090266;28;20020;-70
2021/01/17 12:18:36;;;;;;;222.07;68.30;;;1.30;83.90;;;;;;5091874;28;20031;-70
2021/01/17 12:21:01;;;;;;;37.17;18.25;;;1.30;83.90;;;;;;5088165;28;20051;-70
2021/01/17 12:23:27;;;;;;;47.72;21.88;;;1.30;84.30;;;;;;5090237;28;20031;-70
2021/01/17 12:25:52;;;;;;;62.53;30.27;;;1.30;84.50;;;;;;5089212;28;20028;-70
2021/01/17 12:28:18;;;;;;;47.35;28.45;;;1.40;84.60;;;;;;5072114;28;20020;-70
2021/01/17 12:30:43;;;;;;;40.85;20.90;;;1.40;84.40;;;;;;5088541;28;20060;-70
2021/01/17 12:33:09;;;;;;;59.92;31.58;;;1.50;84.40;;;;;;5086781;28;20020;-70
2021/01/17 12:35:35;;;;;;;27.15;15.95;;;1.50;84.80;;;;;;5087069;28;20032;-72
2021/01/17 12:38:00;;;;;;;28.33;14.90;;;1.60;84.80;;;;;;5089792;28;20020;-72
2021/01/17 12:40:26;;;;;;;23.27;14.15;;;1.70;84.60;;;;;;5089052;28;20452;-71
2021/01/17 12:42:51;;;;;;;27.75;13.13;;;1.70;84.30;;;;;;5085361;28;20035;-71
2021/01/17 12:45:17;;;;;;;23.67;14.25;;;1.70;84.20;;;;;;5086112;28;20103;-71
2021/01/17 12:47:42;;;;;;;23.48;13.35;;;1.70;84.20;;;;;;5089557;28;20032;-72
2021/01/17 12:50:08;;;;;;;23.02;13.02;;;1.70;84.10;;;;;;5088385;28;20032;-71